sensor_id;sensor_type;location;lat;lon;timestamp;pressure;altitude;pressure_sealevel;temperature;humidity
23473;BME280;11909;52.516;13.564;2023-01-28T00:01:17;102075.84;;;-1.09;89.22
23473;BME280;11909;52.516;13.564;2023-01-28T00:03:48;102080.78;;;-1.13;89.52
23473;BME280;11909;52.516;13.564;2023-01-28T00:06:16;102083.97;;;-1.18;90.37
23473;BME280;11909;52.516;13.564;2023-01-28T00:08:45;102075.88;;;-1.18;89.80
23473;BME280;11909;52.516;13.564;2023-01-28T00:11:13;102077.22;;;-1.22;90.39
23473;BME280;11909;52.516;13.564;2023-01-28T00:13:40;102083.63;;;-1.23;91.14
23473;BME280;11909;52.516;13.564;2023-01-28T00:16:08;102079.94;;;-1.22;90.83
23473;BME280;11909;52.516;13.564;2023-01-28T00:18:38;102080.06;;;-1.23;90.44
23473;BME280;11909;52.516;13.564;2023-01-28T00:21:08;102082.78;;;-1.23;90.88
23473;BME280;11909;52.516;13.564;2023-01-28T00:23:38;102079.06;;;-1.22;90.98
23473;BME280;11909;52.516;13.564;2023-01-28T00:26:09;102083.63;;;-1.23;91.19
23473;BME280;11909;52.516;13.564;2023-01-28T00:28:38;102093.88;;;-1.18;90.69
23473;BME280;11909;52.516;13.564;2023-01-28T00:31:06;102096.56;;;-1.18;90.25
23473;BME280;11909;52.516;13.564;2023-01-28T00:33:35;102102.81;;;-1.26;89.93
23473;BME280;11909;52.516;13.564;2023-01-28T00:36:05;102095.91;;;-1.20;90.59
23473;BME280;11909;52.516;13.564;2023-01-28T00:38:33;102090.16;;;-1.17;90.66
23473;BME280;11909;52.516;13.564;2023-01-28T00:41:06;102094.41;;;-1.14;90.19
23473;BME280;11909;52.516;13.564;2023-01-28T00:43:35;102098.63;;;-1.12;90.03
23473;BME280;11909;52.516;13.564;2023-01-28T00:46:03;102101.13;;;-1.19;90.06
23473;BME280;11909;52.516;13.564;2023-01-28T00:48:33;102099.25;;;-1.18;90.15
23473;BME280;11909;52.516;13.564;2023-01-28T00:51:00;102102.16;;;-1.20;89.52
23473;BME280;11909;52.516;13.564;2023-01-28T00:53:30;102099.59;;;-1.21;89.85
23473;BME280;11909;52.516;13.564;2023-01-28T00:55:58;102109.72;;;-1.23;89.70
23473;BME280;11909;52.516;13.564;2023-01-28T01:00:55;102099.78;;;-1.31;90.45
23473;BME280;11909;52.516;13.564;2023-01-28T01:03:23;102115.44;;;-1.35;90.34
23473;BME280;11909;52.516;13.564;2023-01-28T01:05:50;102102.97;;;-1.44;90.72
23473;BME280;11909;52.516;13.564;2023-01-28T01:08:18;102114.25;;;-1.40;90.95
23473;BME280;11909;52.516;13.564;2023-01-28T01:10:58;102102.97;;;-1.44;90.95
23473;BME280;11909;52.516;13.564;2023-01-28T01:13:26;102104.16;;;-1.47;90.89
23473;BME280;11909;52.516;13.564;2023-01-28T01:16:00;102100.78;;;-1.49;90.44
23473;BME280;11909;52.516;13.564;2023-01-28T01:18:28;102103.13;;;-1.54;90.50
23473;BME280;11909;52.516;13.564;2023-01-28T01:20:56;102109.69;;;-1.56;91.19
23473;BME280;11909;52.516;13.564;2023-01-28T01:23:25;102105.66;;;-1.61;91.55
23473;BME280;11909;52.516;13.564;2023-01-28T01:25:53;102098.06;;;-1.65;91.76
23473;BME280;11909;52.516;13.564;2023-01-28T01:28:22;102106.81;;;-1.63;91.69
23473;BME280;11909;52.516;13.564;2023-01-28T01:30:58;102101.94;;;-1.60;91.90
23473;BME280;11909;52.516;13.564;2023-01-28T01:33:27;102108.00;;;-1.57;92.01
23473;BME280;11909;52.516;13.564;2023-01-28T01:35:55;102099.25;;;-1.51;92.33
23473;BME280;11909;52.516;13.564;2023-01-28T01:38:24;102100.94;;;-1.50;92.62
23473;BME280;11909;52.516;13.564;2023-01-28T01:40:54;102099.44;;;-1.45;92.60
23473;BME280;11909;52.516;13.564;2023-01-28T01:43:43;102102.63;;;-1.41;92.28
23473;BME280;11909;52.516;13.564;2023-01-28T01:46:12;102113.41;;;-1.41;92.87
23473;BME280;11909;52.516;13.564;2023-01-28T01:48:42;102113.09;;;-1.38;92.82
23473;BME280;11909;52.516;13.564;2023-01-28T01:51:12;102116.59;;;-1.29;92.67
23473;BME280;11909;52.516;13.564;2023-01-28T01:53:43;102124.69;;;-1.29;92.89
23473;BME280;11909;52.516;13.564;2023-01-28T01:56:14;102120.66;;;-1.25;92.61
23473;BME280;11909;52.516;13.564;2023-01-28T01:58:47;102125.38;;;-1.19;92.97
23473;BME280;11909;52.516;13.564;2023-01-28T02:01:18;102121.84;;;-1.11;92.61
23473;BME280;11909;52.516;13.564;2023-01-28T02:03:52;102111.56;;;-1.07;92.28
23473;BME280;11909;52.516;13.564;2023-01-28T02:06:22;102117.13;;;-1.09;92.21
23473;BME280;11909;52.516;13.564;2023-01-28T02:08:52;102115.25;;;-1.08;92.22
23473;BME280;11909;52.516;13.564;2023-01-28T02:11:20;102123.72;;;-1.03;91.87
23473;BME280;11909;52.516;13.564;2023-01-28T02:13:53;102121.69;;;-1.01;92.02
23473;BME280;11909;52.516;13.564;2023-01-28T02:16:23;102120.81;;;-1.02;91.68
23473;BME280;11909;52.516;13.564;2023-01-28T02:18:52;102119.47;;;-1.06;91.75
23473;BME280;11909;52.516;13.564;2023-01-28T02:21:48;102108.88;;;-1.07;91.93
23473;BME280;11909;52.516;13.564;2023-01-28T02:24:49;102112.75;;;-1.10;92.08
23473;BME280;11909;52.516;13.564;2023-01-28T02:27:27;102112.56;;;-1.08;92.07
23473;BME280;11909;52.516;13.564;2023-01-28T02:30:03;102112.91;;;-1.11;92.16
23473;BME280;11909;52.516;13.564;2023-01-28T02:32:39;102110.53;;;-1.06;91.97
23473;BME280;11909;52.516;13.564;2023-01-28T02:35:13;102114.75;;;-1.04;92.39
23473;BME280;11909;52.516;13.564;2023-01-28T02:37:46;102112.06;;;-1.04;92.16
23473;BME280;11909;52.516;13.564;2023-01-28T02:40:21;102115.78;;;-1.05;92.05
23473;BME280;11909;52.516;13.564;2023-01-28T02:42:50;102120.81;;;-1.02;92.52
23473;BME280;11909;52.516;13.564;2023-01-28T02:45:22;102119.81;;;-1.01;92.13
23473;BME280;11909;52.516;13.564;2023-01-28T02:47:50;102124.72;;;-0.96;92.68
23473;BME280;11909;52.516;13.564;2023-01-28T02:50:30;102124.19;;;-0.99;91.77
23473;BME280;11909;52.516;13.564;2023-01-28T02:53:09;102116.63;;;-0.96;92.21
23473;BME280;11909;52.516;13.564;2023-01-28T02:56:03;102122.00;;;-0.96;91.87
23473;BME280;11909;52.516;13.564;2023-01-28T02:58:36;102119.47;;;-0.97;92.32
23473;BME280;11909;52.516;13.564;2023-01-28T03:01:14;102120.81;;;-1.02;91.79
23473;BME280;11909;52.516;13.564;2023-01-28T03:03:55;102121.66;;;-0.93;92.29
23473;BME280;11909;52.516;13.564;2023-01-28T03:06:29;102125.38;;;-0.94;92.01
23473;BME280;11909;52.516;13.564;2023-01-28T03:09:02;102125.53;;;-0.87;92.03
23473;BME280;11909;52.516;13.564;2023-01-28T03:11:54;102126.56;;;-0.88;91.46
23473;BME280;11909;52.516;13.564;2023-01-28T03:14:41;102130.41;;;-0.91;91.10
23473;BME280;11909;52.516;13.564;2023-01-28T03:17:31;102128.72;;;-0.83;91.58
23473;BME280;11909;52.516;13.564;2023-01-28T03:20:20;102132.63;;;-0.86;91.40
23473;BME280;11909;52.516;13.564;2023-01-28T03:23:09;102131.94;;;-0.88;91.20
23473;BME280;11909;52.516;13.564;2023-01-28T03:25:58;102129.41;;;-0.90;91.45
23473;BME280;11909;52.516;13.564;2023-01-28T03:28:47;102125.38;;;-0.94;91.75
23473;BME280;11909;52.516;13.564;2023-01-28T03:31:34;102128.75;;;-0.92;92.04
23473;BME280;11909;52.516;13.564;2023-01-28T03:34:22;102124.69;;;-0.88;92.36
23473;BME280;11909;52.516;13.564;2023-01-28T03:37:08;102127.91;;;-0.84;91.71
23473;BME280;11909;52.516;13.564;2023-01-28T03:39:36;102121.50;;;-0.83;91.88
23473;BME280;11909;52.516;13.564;2023-01-28T03:42:06;102126.22;;;-0.85;91.23
23473;BME280;11909;52.516;13.564;2023-01-28T03:44:35;102123.69;;;-0.87;91.33
23473;BME280;11909;52.516;13.564;2023-01-28T03:47:19;102121.84;;;-0.86;92.04
23473;BME280;11909;52.516;13.564;2023-01-28T03:49:50;102125.53;;;-0.87;92.29
23473;BME280;11909;52.516;13.564;2023-01-28T03:52:20;102130.59;;;-0.84;91.49
23473;BME280;11909;52.516;13.564;2023-01-28T03:54:48;102121.00;;;-0.78;91.45
23473;BME280;11909;52.516;13.564;2023-01-28T03:57:20;102124.34;;;-0.76;91.00
23473;BME280;11909;52.516;13.564;2023-01-28T03:59:48;102125.19;;;-0.76;91.33
23473;BME280;11909;52.516;13.564;2023-01-28T04:02:16;102129.72;;;-0.68;91.00
23473;BME280;11909;52.516;13.564;2023-01-28T04:04:44;102121.63;;;-0.68;89.70
23473;BME280;11909;52.516;13.564;2023-01-28T04:07:13;102134.78;;;-0.65;89.45
23473;BME280;11909;52.516;13.564;2023-01-28T04:09:42;102142.84;;;-0.65;87.57
23473;BME280;11909;52.516;13.564;2023-01-28T04:12:10;102139.00;;;-0.62;87.42
23473;BME280;11909;52.516;13.564;2023-01-28T04:14:38;102136.09;;;-0.61;87.54
23473;BME280;11909;52.516;13.564;2023-01-28T04:17:06;102135.78;;;-0.57;87.12
23473;BME280;11909;52.516;13.564;2023-01-28T04:19:37;102143.88;;;-0.57;85.84
23473;BME280;11909;52.516;13.564;2023-01-28T04:22:07;102143.03;;;-0.58;85.51
23473;BME280;11909;52.516;13.564;2023-01-28T04:24:37;102133.56;;;-0.54;85.59
23473;BME280;11909;52.516;13.564;2023-01-28T04:27:05;102142.00;;;-0.57;84.69
23473;BME280;11909;52.516;13.564;2023-01-28T04:29:33;102148.41;;;-0.58;84.44
23473;BME280;11909;52.516;13.564;2023-01-28T04:32:00;102148.38;;;-0.50;83.80
23473;BME280;11909;52.516;13.564;2023-01-28T04:34:28;102146.91;;;-0.52;83.10
23473;BME280;11909;52.516;13.564;2023-01-28T04:36:56;102154.47;;;-0.56;83.27
23473;BME280;11909;52.516;13.564;2023-01-28T04:39:24;102149.78;;;-0.62;82.85
23473;BME280;11909;52.516;13.564;2023-01-28T04:41:53;102143.69;;;-0.56;82.92
23473;BME280;11909;52.516;13.564;2023-01-28T04:44:21;102153.31;;;-0.53;82.55
23473;BME280;11909;52.516;13.564;2023-01-28T04:46:48;102153.47;;;-0.55;83.12
23473;BME280;11909;52.516;13.564;2023-01-28T04:49:16;102158.84;;;-0.55;82.70
23473;BME280;11909;52.516;13.564;2023-01-28T04:51:44;102150.44;;;-0.60;82.49
23473;BME280;11909;52.516;13.564;2023-01-28T04:54:11;102146.72;;;-0.59;83.11
23473;BME280;11909;52.516;13.564;2023-01-28T04:56:39;102142.34;;;-0.60;81.39
23473;BME280;11909;52.516;13.564;2023-01-28T04:59:08;102145.56;;;-0.56;82.22
23473;BME280;11909;52.516;13.564;2023-01-28T05:01:36;102152.78;;;-0.57;81.55
23473;BME280;11909;52.516;13.564;2023-01-28T05:04:04;102148.06;;;-0.55;81.89
23473;BME280;11909;52.516;13.564;2023-01-28T05:06:31;102149.75;;;-0.54;82.79
23473;BME280;11909;52.516;13.564;2023-01-28T05:08:59;102149.75;;;-0.54;82.74
23473;BME280;11909;52.516;13.564;2023-01-28T05:11:27;102164.56;;;-0.50;82.52
23473;BME280;11909;52.516;13.564;2023-01-28T05:13:54;102153.78;;;-0.50;82.97
23473;BME280;11909;52.516;13.564;2023-01-28T05:16:24;102160.19;;;-0.51;83.20
23473;BME280;11909;52.516;13.564;2023-01-28T05:18:51;102169.66;;;-0.55;83.26
23473;BME280;11909;52.516;13.564;2023-01-28T05:21:19;102168.97;;;-0.57;82.85
23473;BME280;11909;52.516;13.564;2023-01-28T05:23:47;102166.28;;;-0.57;82.44
23473;BME280;11909;52.516;13.564;2023-01-28T05:26:14;102175.38;;;-0.58;82.36
23473;BME280;11909;52.516;13.564;2023-01-28T05:28:42;102173.69;;;-0.59;82.37
23473;BME280;11909;52.516;13.564;2023-01-28T05:31:10;102179.09;;;-0.59;82.40
23473;BME280;11909;52.516;13.564;2023-01-28T05:33:39;102173.00;;;-0.53;81.95
23473;BME280;11909;52.516;13.564;2023-01-28T05:36:07;102172.50;;;-0.48;82.13
23473;BME280;11909;52.516;13.564;2023-01-28T05:38:34;102174.19;;;-0.47;82.17
23473;BME280;11909;52.516;13.564;2023-01-28T05:41:02;102166.91;;;-0.47;82.11
23473;BME280;11909;52.516;13.564;2023-01-28T05:43:30;102164.38;;;-0.40;81.72
23473;BME280;11909;52.516;13.564;2023-01-28T05:45:58;102173.16;;;-0.38;81.47
23473;BME280;11909;52.516;13.564;2023-01-28T05:48:25;102175.38;;;-0.41;80.65
23473;BME280;11909;52.516;13.564;2023-01-28T05:50:54;102178.22;;;-0.43;80.77
23473;BME280;11909;52.516;13.564;2023-01-28T05:53:22;102178.22;;;-0.43;80.82
23473;BME280;11909;52.516;13.564;2023-01-28T05:55:51;102178.22;;;-0.43;80.39
23473;BME280;11909;52.516;13.564;2023-01-28T05:58:20;102176.03;;;-0.39;81.30
23473;BME280;11909;52.516;13.564;2023-01-28T06:00:48;102179.41;;;-0.37;81.07
23473;BME280;11909;52.516;13.564;2023-01-28T06:03:15;102176.69;;;-0.37;80.50
23473;BME280;11909;52.516;13.564;2023-01-28T06:05:43;102179.22;;;-0.36;81.20
23473;BME280;11909;52.516;13.564;2023-01-28T06:08:12;102170.28;;;-0.36;81.14
23473;BME280;11909;52.516;13.564;2023-01-28T06:10:40;102168.97;;;-0.40;81.06
23473;BME280;11909;52.516;13.564;2023-01-28T06:13:08;102182.44;;;-0.40;81.47
23473;BME280;11909;52.516;13.564;2023-01-28T06:15:35;102185.50;;;-0.44;81.65
23473;BME280;11909;52.516;13.564;2023-01-28T06:18:03;102188.66;;;-0.40;81.54
23473;BME280;11909;52.516;13.564;2023-01-28T06:20:31;102192.88;;;-0.37;81.36
23473;BME280;11909;52.516;13.564;2023-01-28T06:22:58;102175.00;;;-0.47;81.55
23473;BME280;11909;52.516;13.564;2023-01-28T06:25:28;102179.75;;;-0.49;81.50
23473;BME280;11909;52.516;13.564;2023-01-28T06:27:55;102188.69;;;-0.48;80.75
23473;BME280;11909;52.516;13.564;2023-01-28T06:30:23;102187.69;;;-0.47;80.98
23473;BME280;11909;52.516;13.564;2023-01-28T06:32:53;102187.69;;;-0.47;81.14
23473;BME280;11909;52.516;13.564;2023-01-28T06:35:22;102186.50;;;-0.45;81.09
23473;BME280;11909;52.516;13.564;2023-01-28T06:37:49;102190.53;;;-0.49;81.53
23473;BME280;11909;52.516;13.564;2023-01-28T06:40:18;102190.53;;;-0.49;81.97
23473;BME280;11909;52.516;13.564;2023-01-28T06:42:48;102187.84;;;-0.49;83.65
23473;BME280;11909;52.516;13.564;2023-01-28T06:45:15;102182.44;;;-0.49;83.77
23473;BME280;11909;52.516;13.564;2023-01-28T06:47:43;102181.41;;;-0.48;83.76
23473;BME280;11909;52.516;13.564;2023-01-28T06:50:11;102187.00;;;-0.49;83.25
23473;BME280;11909;52.516;13.564;2023-01-28T06:52:39;102188.69;;;-0.48;82.86
23473;BME280;11909;52.516;13.564;2023-01-28T06:55:08;102188.69;;;-0.48;83.03
23473;BME280;11909;52.516;13.564;2023-01-28T06:57:37;102193.56;;;-0.52;83.03
23473;BME280;11909;52.516;13.564;2023-01-28T07:00:09;102186.50;;;-0.53;83.61
23473;BME280;11909;52.516;13.564;2023-01-28T07:02:39;102189.38;;;-0.54;84.57
23473;BME280;11909;52.516;13.564;2023-01-28T07:05:07;102187.34;;;-0.52;84.22
23473;BME280;11909;52.516;13.564;2023-01-28T07:07:35;102186.00;;;-0.48;84.54
23473;BME280;11909;52.516;13.564;2023-01-28T07:10:06;102189.50;;;-0.48;84.60
23473;BME280;11909;52.516;13.564;2023-01-28T07:12:33;102188.84;;;-0.50;84.78
23473;BME280;11909;52.516;13.564;2023-01-28T07:15:01;102191.53;;;-0.50;84.58
23473;BME280;11909;52.516;13.564;2023-01-28T07:17:30;102201.31;;;-0.49;84.83
23473;BME280;11909;52.516;13.564;2023-01-28T07:19:58;102202.69;;;-0.45;84.21
23473;BME280;11909;52.516;13.564;2023-01-28T07:22:26;102200.66;;;-0.42;83.96
23473;BME280;11909;52.516;13.564;2023-01-28T07:24:53;102206.88;;;-0.42;83.90
23473;BME280;11909;52.516;13.564;2023-01-28T07:27:21;102202.81;;;-0.38;83.59
23473;BME280;11909;52.516;13.564;2023-01-28T07:29:49;102195.59;;;-0.37;83.11
23473;BME280;11909;52.516;13.564;2023-01-28T07:32:16;102202.81;;;-0.38;82.89
23473;BME280;11909;52.516;13.564;2023-01-28T07:34:45;102207.03;;;-0.35;82.29
23473;BME280;11909;52.516;13.564;2023-01-28T07:37:13;102208.72;;;-0.34;82.46
23473;BME280;11909;52.516;13.564;2023-01-28T07:39:41;102204.66;;;-0.30;82.39
23473;BME280;11909;52.516;13.564;2023-01-28T07:42:09;102198.59;;;-0.32;83.02
23473;BME280;11909;52.516;13.564;2023-01-28T07:44:36;102199.78;;;-0.35;83.65
23473;BME280;11909;52.516;13.564;2023-01-28T07:47:05;102201.66;;;-0.35;83.64
23473;BME280;11909;52.516;13.564;2023-01-28T07:49:33;102201.66;;;-0.35;84.61
23473;BME280;11909;52.516;13.564;2023-01-28T07:52:02;102196.75;;;-0.32;84.25
23473;BME280;11909;52.516;13.564;2023-01-28T07:54:29;102193.88;;;-0.30;84.39
23473;BME280;11909;52.516;13.564;2023-01-28T07:56:57;102207.00;;;-0.27;84.58
23473;BME280;11909;52.516;13.564;2023-01-28T07:59:25;102189.31;;;-0.21;83.76
23473;BME280;11909;52.516;13.564;2023-01-28T08:01:53;102200.75;;;-0.19;82.74
23473;BME280;11909;52.516;13.564;2023-01-28T08:04:20;102204.13;;;-0.17;81.74
23473;BME280;11909;52.516;13.564;2023-01-28T08:06:48;102194.19;;;-0.17;83.17
23473;BME280;11909;52.516;13.564;2023-01-28T08:09:19;102199.75;;;-0.18;83.62
23473;BME280;11909;52.516;13.564;2023-01-28T08:11:46;102198.91;;;-0.19;84.20
23473;BME280;11909;52.516;13.564;2023-01-28T08:14:14;102211.56;;;-0.19;84.01
23473;BME280;11909;52.516;13.564;2023-01-28T08:16:41;102214.91;;;-0.17;83.45
23473;BME280;11909;52.516;13.564;2023-01-28T08:19:09;102220.31;;;-0.17;83.03
23473;BME280;11909;52.516;13.564;2023-01-28T08:21:37;102215.13;;;-0.19;84.53
23473;BME280;11909;52.516;13.564;2023-01-28T08:24:05;102225.72;;;-0.17;84.58
23473;BME280;11909;52.516;13.564;2023-01-28T08:26:34;102217.47;;;-0.16;84.21
23473;BME280;11909;52.516;13.564;2023-01-28T08:29:02;102208.34;;;-0.15;83.95
23473;BME280;11909;52.516;13.564;2023-01-28T08:31:31;102216.25;;;-0.13;85.14
23473;BME280;11909;52.516;13.564;2023-01-28T08:33:59;102219.47;;;-0.09;83.94
23473;BME280;11909;52.516;13.564;2023-01-28T08:36:27;102224.69;;;-0.08;84.00
23473;BME280;11909;52.516;13.564;2023-01-28T08:38:55;102237.84;;;-0.05;83.31
23473;BME280;11909;52.516;13.564;2023-01-28T08:41:23;102243.72;;;-0.01;83.00
23473;BME280;11909;52.516;13.564;2023-01-28T08:43:52;102243.22;;;0.04;82.42
23473;BME280;11909;52.516;13.564;2023-01-28T08:46:20;102243.72;;;0.07;81.46
23473;BME280;11909;52.516;13.564;2023-01-28T08:48:48;102255.19;;;0.09;80.54
23473;BME280;11909;52.516;13.564;2023-01-28T08:51:16;102249.78;;;0.09;79.72
23473;BME280;11909;52.516;13.564;2023-01-28T08:53:44;102251.31;;;0.12;79.36
23473;BME280;11909;52.516;13.564;2023-01-28T08:56:11;102259.06;;;0.15;79.43
23473;BME280;11909;52.516;13.564;2023-01-28T08:58:39;102260.38;;;0.19;79.79
23473;BME280;11909;52.516;13.564;2023-01-28T09:01:09;102260.88;;;0.23;79.09
23473;BME280;11909;52.516;13.564;2023-01-28T09:03:36;102264.25;;;0.25;78.55
23473;BME280;11909;52.516;13.564;2023-01-28T09:06:05;102273.84;;;0.27;77.96
23473;BME280;11909;52.516;13.564;2023-01-28T09:08:32;102278.44;;;0.27;77.16
23473;BME280;11909;52.516;13.564;2023-01-28T09:11:00;102275.53;;;0.28;76.88
23473;BME280;11909;52.516;13.564;2023-01-28T09:13:28;102271.16;;;0.27;76.54
23473;BME280;11909;52.516;13.564;2023-01-28T09:15:56;102277.06;;;0.31;76.38
23473;BME280;11909;52.516;13.564;2023-01-28T09:18:25;102289.03;;;0.37;76.67
23473;BME280;11909;52.516;13.564;2023-01-28T09:20:53;102295.75;;;0.41;76.04
23473;BME280;11909;52.516;13.564;2023-01-28T09:23:21;102299.78;;;0.45;75.66
23473;BME280;11909;52.516;13.564;2023-01-28T09:25:49;102301.66;;;0.45;75.35
23473;BME280;11909;52.516;13.564;2023-01-28T09:28:16;102305.38;;;0.43;74.42
23473;BME280;11909;52.516;13.564;2023-01-28T09:30:44;102313.16;;;0.47;74.95
23473;BME280;11909;52.516;13.564;2023-01-28T09:33:12;102312.13;;;0.48;74.76
23473;BME280;11909;52.516;13.564;2023-01-28T09:35:41;102307.38;;;0.50;74.75
23473;BME280;11909;52.516;13.564;2023-01-28T09:38:09;102313.94;;;0.55;74.25
23473;BME280;11909;52.516;13.564;2023-01-28T09:40:39;102312.09;;;0.56;74.27
23473;BME280;11909;52.516;13.564;2023-01-28T09:43:19;102302.97;;;0.57;74.20
23473;BME280;11909;52.516;13.564;2023-01-28T09:45:53;102307.19;;;0.60;73.87
23473;BME280;11909;52.516;13.564;2023-01-28T09:48:24;102311.22;;;0.55;74.16
23473;BME280;11909;52.516;13.564;2023-01-28T09:50:58;102313.06;;;0.63;72.84
23473;BME280;11909;52.516;13.564;2023-01-28T09:53:29;102315.41;;;0.66;72.88
23473;BME280;11909;52.516;13.564;2023-01-28T09:56:00;102316.78;;;0.70;73.26
23473;BME280;11909;52.516;13.564;2023-01-28T09:58:29;102325.69;;;0.71;73.31
23473;BME280;11909;52.516;13.564;2023-01-28T10:01:01;102324.31;;;0.75;73.02
23473;BME280;11909;52.516;13.564;2023-01-28T10:03:50;102323.94;;;0.87;71.78
23473;BME280;11909;52.516;13.564;2023-01-28T10:06:29;102326.09;;;0.91;70.76
23473;BME280;11909;52.516;13.564;2023-01-28T10:09:09;102327.69;;;0.85;70.62
23473;BME280;11909;52.516;13.564;2023-01-28T10:11:50;102321.78;;;0.82;70.39
23473;BME280;11909;52.516;13.564;2023-01-28T10:14:30;102317.53;;;0.79;70.48
23473;BME280;11909;52.516;13.564;2023-01-28T10:17:03;102313.66;;;0.82;70.88
23473;BME280;11909;52.516;13.564;2023-01-28T10:19:36;102315.19;;;0.84;70.81
23473;BME280;11909;52.516;13.564;2023-01-28T10:22:12;102318.34;;;0.88;70.94
23473;BME280;11909;52.516;13.564;2023-01-28T10:24:46;102312.94;;;0.88;70.81
23473;BME280;11909;52.516;13.564;2023-01-28T10:27:18;102315.34;;;0.83;70.23
23473;BME280;11909;52.516;13.564;2023-01-28T10:29:47;102317.88;;;0.84;71.14
23473;BME280;11909;52.516;13.564;2023-01-28T10:32:20;102322.28;;;0.85;70.02
23473;BME280;11909;52.516;13.564;2023-01-28T10:34:50;102312.06;;;0.96;69.22
23473;BME280;11909;52.516;13.564;2023-01-28T10:37:20;102304.31;;;0.93;69.51
23473;BME280;11909;52.516;13.564;2023-01-28T10:39:48;102303.00;;;0.89;69.40
23473;BME280;11909;52.516;13.564;2023-01-28T10:42:25;102309.22;;;0.89;69.78
23473;BME280;11909;52.516;13.564;2023-01-28T10:44:58;102301.44;;;0.94;69.48
23473;BME280;11909;52.516;13.564;2023-01-28T10:47:30;102304.31;;;0.93;69.20
23473;BME280;11909;52.516;13.564;2023-01-28T10:50:00;102308.84;;;1.00;69.10
23473;BME280;11909;52.516;13.564;2023-01-28T10:52:30;102311.75;;;0.91;68.28
23473;BME280;11909;52.516;13.564;2023-01-28T10:54:59;102305.16;;;0.93;68.26
23473;BME280;11909;52.516;13.564;2023-01-28T10:57:27;102312.56;;;0.99;68.29
23473;BME280;11909;52.516;13.564;2023-01-28T10:59:55;102314.59;;;0.97;68.21
23473;BME280;11909;52.516;13.564;2023-01-28T11:02:28;102315.13;;;0.93;67.60
23473;BME280;11909;52.516;13.564;2023-01-28T11:05:14;102318.03;;;0.83;66.93
23473;BME280;11909;52.516;13.564;2023-01-28T11:07:43;102309.88;;;0.91;68.27
23473;BME280;11909;52.516;13.564;2023-01-28T11:10:28;102302.50;;;0.85;69.20
23473;BME280;11909;52.516;13.564;2023-01-28T11:12:59;102302.50;;;0.85;69.51
23473;BME280;11909;52.516;13.564;2023-01-28T11:15:27;102299.06;;;0.91;69.29
23473;BME280;11909;52.516;13.564;2023-01-28T11:17:56;102305.50;;;0.90;68.91
23473;BME280;11909;52.516;13.564;2023-01-28T11:20:27;102307.19;;;0.91;68.78
23473;BME280;11909;52.516;13.564;2023-01-28T11:22:57;102301.44;;;0.94;68.86
23473;BME280;11909;52.516;13.564;2023-01-28T11:25:28;102310.56;;;0.93;67.77
23473;BME280;11909;52.516;13.564;2023-01-28T11:27:58;102296.03;;;0.94;67.90
23473;BME280;11909;52.516;13.564;2023-01-28T11:30:28;102306.84;;;0.94;67.95
23473;BME280;11909;52.516;13.564;2023-01-28T11:33:01;102306.84;;;0.94;67.46
23473;BME280;11909;52.516;13.564;2023-01-28T11:35:31;102298.53;;;0.96;67.05
23473;BME280;11909;52.516;13.564;2023-01-28T11:38:01;102290.28;;;0.97;66.72
23473;BME280;11909;52.516;13.564;2023-01-28T11:40:28;102285.22;;;0.94;66.73
23473;BME280;11909;52.516;13.564;2023-01-28T11:42:56;102283.34;;;0.95;67.74
23473;BME280;11909;52.516;13.564;2023-01-28T11:45:32;102284.53;;;0.92;67.70
23473;BME280;11909;52.516;13.564;2023-01-28T11:48:18;102285.03;;;0.96;67.83
23473;BME280;11909;52.516;13.564;2023-01-28T11:50:56;102286.56;;;0.98;67.76
23473;BME280;11909;52.516;13.564;2023-01-28T11:53:41;102274.88;;;0.98;67.77
23473;BME280;11909;52.516;13.564;2023-01-28T11:56:42;102269.97;;;1.02;67.98
23473;BME280;11909;52.516;13.564;2023-01-28T11:59:26;102260.16;;;1.00;67.99
23473;BME280;11909;52.516;13.564;2023-01-28T12:02:01;102274.50;;;1.01;68.35
23473;BME280;11909;52.516;13.564;2023-01-28T12:04:52;102270.94;;;1.09;68.10
23473;BME280;11909;52.516;13.564;2023-01-28T12:07:36;102257.59;;;1.07;67.88
23473;BME280;11909;52.516;13.564;2023-01-28T12:10:17;102266.72;;;1.06;68.10
23473;BME280;11909;52.516;13.564;2023-01-28T12:12:58;102263.84;;;1.08;68.13
23473;BME280;11909;52.516;13.564;2023-01-28T12:15:57;102255.56;;;1.09;68.20
23473;BME280;11909;52.516;13.564;2023-01-28T12:18:45;102262.81;;;1.09;68.59
23473;BME280;11909;52.516;13.564;2023-01-28T12:21:29;102246.06;;;1.13;68.46
23473;BME280;11909;52.516;13.564;2023-01-28T12:24:11;102254.53;;;1.10;68.45
23473;BME280;11909;52.516;13.564;2023-01-28T12:26:48;102246.88;;;1.14;68.40
23473;BME280;11909;52.516;13.564;2023-01-28T12:29:26;102258.56;;;1.14;68.73
23473;BME280;11909;52.516;13.564;2023-01-28T12:32:24;102259.38;;;1.15;67.48
23473;BME280;11909;52.516;13.564;2023-01-28T12:35:21;102253.44;;;1.20;67.67
23473;BME280;11909;52.516;13.564;2023-01-28T12:38:07;102246.47;;;1.25;67.95
23473;BME280;11909;52.516;13.564;2023-01-28T12:40:46;102251.72;;;1.27;67.66
23473;BME280;11909;52.516;13.564;2023-01-28T12:43:21;102248.88;;;1.20;67.25
23473;BME280;11909;52.516;13.564;2023-01-28T12:45:54;102238.44;;;1.17;67.42
23473;BME280;11909;52.516;13.564;2023-01-28T12:48:26;102240.28;;;1.17;68.08
23473;BME280;11909;52.516;13.564;2023-01-28T12:51:01;102241.47;;;1.14;68.51
23473;BME280;11909;52.516;13.564;2023-01-28T12:53:35;102233.91;;;1.09;68.59
23473;BME280;11909;52.516;13.564;2023-01-28T12:56:07;102233.56;;;1.12;68.74
23473;BME280;11909;52.516;13.564;2023-01-28T12:58:47;102232.53;;;1.13;68.80
23473;BME280;11909;52.516;13.564;2023-01-28T13:01:21;102236.38;;;1.19;68.81
23473;BME280;11909;52.516;13.564;2023-01-28T13:03:55;102239.47;;;1.16;67.54
23473;BME280;11909;52.516;13.564;2023-01-28T13:06:29;102237.28;;;1.11;68.23
23473;BME280;11909;52.516;13.564;2023-01-28T13:09:01;102229.84;;;1.13;68.37